createdAt,value
2022-09-03T00:00:39.754Z,1.92
2022-09-03T00:03:13.680Z,2.20
2022-09-03T00:05:48.480Z,2.05
2022-09-03T00:08:23.322Z,2.55
2022-09-03T00:10:57.316Z,2.22
2022-09-03T00:13:28.689Z,2.22
2022-09-03T00:15:59.847Z,2.25
2022-09-03T00:18:32.471Z,2.00
2022-09-03T00:23:39.992Z,2.15
2022-09-03T00:26:18.955Z,1.98
2022-09-03T00:28:50.223Z,2.08
2022-09-03T00:31:27.407Z,2.00
2022-09-03T00:33:59.887Z,2.00
2022-09-03T00:36:35.521Z,2.17
2022-09-03T00:39:03.344Z,2.10
2022-09-03T00:41:37.761Z,1.90
2022-09-03T00:44:21.580Z,2.00
2022-09-03T00:46:58.322Z,1.92
2022-09-03T00:49:44.820Z,2.00
2022-09-03T00:52:35.200Z,1.75
2022-09-03T00:55:12.526Z,2.15
2022-09-03T00:57:52.144Z,1.90
2022-09-03T01:00:21.826Z,1.70
2022-09-03T01:03:08.693Z,1.70
2022-09-03T01:05:44.381Z,1.60
2022-09-03T01:08:32.245Z,1.92
2022-09-03T01:11:11.612Z,1.98
2022-09-03T01:13:44.199Z,1.98
2022-09-03T01:18:54.649Z,1.90
2022-09-03T01:21:48.122Z,1.95
2022-09-03T01:24:46.254Z,1.90
2022-09-03T01:27:31.511Z,1.98
2022-09-03T01:30:05.632Z,1.80
2022-09-03T01:32:42.401Z,1.90
2022-09-03T01:35:19.794Z,2.00
2022-09-03T01:38:02.687Z,2.00
2022-09-03T01:40:37.150Z,1.88
2022-09-03T01:43:36.000Z,2.00
2022-09-03T01:46:13.995Z,2.10
2022-09-03T01:48:52.144Z,1.92
2022-09-03T01:51:23.004Z,1.80
2022-09-03T01:54:07.613Z,2.10
2022-09-03T01:56:59.287Z,2.00
2022-09-03T01:59:33.027Z,2.13
2022-09-03T02:02:06.974Z,2.10
2022-09-03T02:04:35.267Z,1.85
2022-09-03T02:07:04.892Z,1.90
2022-09-03T02:09:33.131Z,1.77
2022-09-03T02:12:09.238Z,2.03
2022-09-03T02:14:37.270Z,1.90
2022-09-03T02:17:08.236Z,2.08
2022-09-03T02:19:37.643Z,2.10
2022-09-03T02:22:06.264Z,2.00
2022-09-03T02:24:34.417Z,1.95
2022-09-03T02:27:02.342Z,2.13
2022-09-03T02:29:30.835Z,2.03
2022-09-03T02:31:59.843Z,1.90
2022-09-03T02:34:28.971Z,2.10
2022-09-03T02:36:56.780Z,1.92
2022-09-03T02:39:24.631Z,2.20
2022-09-03T02:41:57.454Z,2.15
2022-09-03T02:44:31.656Z,1.80
2022-09-03T02:47:01.794Z,1.70
2022-09-03T02:49:31.555Z,1.70
2022-09-03T02:52:00.829Z,1.75
2022-09-03T02:54:29.262Z,2.08
2022-09-03T02:56:57.074Z,2.08
2022-09-03T02:59:24.784Z,2.10
2022-09-03T03:01:52.679Z,1.98
2022-09-03T03:04:20.670Z,1.83
2022-09-03T03:06:50.737Z,2.10
2022-09-03T03:09:18.556Z,1.90
2022-09-03T03:11:46.863Z,2.00
2022-09-03T03:14:14.649Z,2.00
2022-09-03T03:16:42.506Z,1.88
2022-09-03T03:19:10.322Z,2.38
2022-09-03T03:21:38.075Z,1.75
2022-09-03T03:24:07.946Z,1.70
2022-09-03T03:26:35.857Z,1.95
2022-09-03T03:29:05.715Z,2.10
2022-09-03T03:31:34.118Z,1.95
2022-09-03T03:34:03.521Z,2.13
2022-09-03T03:36:33.744Z,1.85
2022-09-03T03:39:02.797Z,1.90
2022-09-03T03:41:33.344Z,2.00
2022-09-03T03:44:03.280Z,1.92
2022-09-03T03:46:32.834Z,1.90
2022-09-03T03:49:01.120Z,1.98
2022-09-03T03:51:30.455Z,2.17
2022-09-03T03:54:04.319Z,2.00
2022-09-03T03:56:35.386Z,2.13
2022-09-03T03:59:03.689Z,2.10
2022-09-03T04:01:31.915Z,2.00
2022-09-03T04:04:01.028Z,1.98
2022-09-03T04:06:29.427Z,1.95
2022-09-03T04:08:57.263Z,2.03
2022-09-03T04:11:26.191Z,2.40
2022-09-03T04:13:55.525Z,2.03
2022-09-03T04:16:25.203Z,2.05
2022-09-03T04:18:54.470Z,2.38
2022-09-03T04:21:23.775Z,2.00
2022-09-03T04:23:53.392Z,2.10
2022-09-03T04:26:23.801Z,2.10
2022-09-03T04:28:51.608Z,1.88
2022-09-03T04:31:22.513Z,1.73
2022-09-03T04:33:51.241Z,2.20
2022-09-03T04:36:21.224Z,2.15
2022-09-03T04:38:50.511Z,1.80
2022-09-03T04:41:19.930Z,2.03
2022-09-03T04:43:51.613Z,1.90
2022-09-03T04:46:23.414Z,1.95
2022-09-03T04:48:52.883Z,2.20
2022-09-03T04:51:23.189Z,2.10
2022-09-03T04:53:57.589Z,1.95
2022-09-03T04:56:27.251Z,2.22
2022-09-03T04:58:56.725Z,2.22
2022-09-03T05:01:28.471Z,2.10
2022-09-03T05:03:57.937Z,2.20
2022-09-03T05:06:26.319Z,2.22
2022-09-03T05:08:55.622Z,2.13
2022-09-03T05:11:24.404Z,2.20
2022-09-03T05:13:54.240Z,2.05
2022-09-03T05:16:23.563Z,2.30
2022-09-03T05:18:55.472Z,2.20
2022-09-03T05:21:24.587Z,2.20
2022-09-03T05:23:53.844Z,2.00
2022-09-03T05:26:23.427Z,2.13
2022-09-03T05:28:55.015Z,2.20
2022-09-03T05:31:26.176Z,2.20
2022-09-03T05:33:58.575Z,2.10
2022-09-03T05:36:28.547Z,2.10
2022-09-03T05:38:58.480Z,2.15
2022-09-03T05:41:27.595Z,2.47
2022-09-03T05:43:59.136Z,2.78
2022-09-03T05:46:32.065Z,2.92
2022-09-03T05:49:02.561Z,2.40
2022-09-03T05:51:31.583Z,2.20
2022-09-03T05:54:00.238Z,2.58
2022-09-03T05:56:30.238Z,2.35
2022-09-03T05:59:01.859Z,2.47
2022-09-03T06:01:31.995Z,2.13
2022-09-03T06:04:02.993Z,2.17
2022-09-03T06:06:33.953Z,2.20
2022-09-03T06:09:04.485Z,2.35
2022-09-03T06:11:34.784Z,2.00
2022-09-03T06:14:05.818Z,2.20
2022-09-03T06:16:35.102Z,2.45
2022-09-03T06:19:06.110Z,2.30
2022-09-03T06:21:34.119Z,2.58
2022-09-03T06:24:02.026Z,2.75
2022-09-03T06:26:31.012Z,3.15
2022-09-03T06:28:59.963Z,2.80
2022-09-03T06:31:28.237Z,2.80
2022-09-03T06:33:59.599Z,2.55
2022-09-03T06:38:59.023Z,2.40
2022-09-03T06:41:32.382Z,2.10
2022-09-03T06:44:02.318Z,2.30
2022-09-03T06:46:31.963Z,2.40
2022-09-03T06:49:00.467Z,2.70
2022-09-03T06:51:31.122Z,2.70
2022-09-03T06:54:02.836Z,3.10
2022-09-03T06:56:33.027Z,2.83
2022-09-03T06:59:07.058Z,2.75
2022-09-03T07:01:36.052Z,2.90
2022-09-03T07:04:06.228Z,3.10
2022-09-03T07:06:38.570Z,2.78
2022-09-03T07:09:06.545Z,2.78
2022-09-03T07:11:35.989Z,2.70
2022-09-03T07:14:04.849Z,2.70
2022-09-03T07:16:35.476Z,2.97
2022-09-03T07:19:04.763Z,3.00
2022-09-03T07:21:34.464Z,3.15
2022-09-03T07:24:05.135Z,3.00
2022-09-03T07:26:35.677Z,2.85
2022-09-03T07:29:03.797Z,2.70
2022-09-03T07:31:33.934Z,2.90
2022-09-03T07:34:06.039Z,2.70
2022-09-03T07:36:41.611Z,3.10
2022-09-03T07:39:12.421Z,2.90
2022-09-03T07:41:45.137Z,2.70
2022-09-03T07:44:15.374Z,2.95
2022-09-03T07:46:43.607Z,3.10
2022-09-03T07:49:11.522Z,2.80
2022-09-03T07:51:40.272Z,3.78
2022-09-03T07:54:11.018Z,3.35
2022-09-03T07:56:41.827Z,3.05
2022-09-03T07:59:10.090Z,3.20
2022-09-03T08:01:39.213Z,3.03
2022-09-03T08:04:11.106Z,3.07
2022-09-03T08:06:39.964Z,3.30
2022-09-03T08:09:11.389Z,3.33
2022-09-03T08:11:43.277Z,3.45
2022-09-03T08:14:12.767Z,3.40
2022-09-03T08:16:42.769Z,3.22
2022-09-03T08:19:11.363Z,3.72
2022-09-03T08:21:40.329Z,3.20
2022-09-03T08:24:08.245Z,3.60
2022-09-03T08:26:37.866Z,3.35
2022-09-03T08:29:08.006Z,3.80
2022-09-03T08:31:36.660Z,3.80
2022-09-03T08:34:07.437Z,3.85
2022-09-03T08:36:36.819Z,3.80
2022-09-03T08:39:09.984Z,3.38
2022-09-03T08:42:18.970Z,3.45
2022-09-03T08:44:54.248Z,3.67
2022-09-03T08:47:25.149Z,3.42
2022-09-03T08:49:57.618Z,3.90
2022-09-03T08:52:30.933Z,3.50
2022-09-03T08:55:10.748Z,3.80
2022-09-03T08:57:44.915Z,4.25
2022-09-03T09:00:15.377Z,3.63
2022-09-03T09:02:54.754Z,4.30
2022-09-03T09:05:27.214Z,4.10
2022-09-03T09:08:04.716Z,4.30
2022-09-03T09:10:39.324Z,4.22
2022-09-03T09:13:16.388Z,4.50
2022-09-03T09:15:55.737Z,4.00
2022-09-03T09:18:36.452Z,4.63
2022-09-03T09:21:14.915Z,4.70
2022-09-03T09:23:49.144Z,5.28
2022-09-03T09:26:19.756Z,4.68
2022-09-03T09:28:51.117Z,5.10
2022-09-03T09:31:20.422Z,5.40
2022-09-03T09:33:48.275Z,5.38
2022-09-03T09:36:19.485Z,5.70
2022-09-03T09:38:48.842Z,5.20
2022-09-03T09:41:19.395Z,4.95
2022-09-03T09:43:48.216Z,4.55
2022-09-03T09:46:17.641Z,4.93
2022-09-03T09:48:52.087Z,4.55
2022-09-03T09:51:22.470Z,4.30
2022-09-03T09:53:50.523Z,4.78
2022-09-03T09:56:23.964Z,4.50
2022-09-03T09:59:03.035Z,4.60
2022-09-03T10:01:32.098Z,4.88
2022-09-03T10:04:09.239Z,4.97
2022-09-03T10:06:56.771Z,4.50
2022-09-03T10:09:30.979Z,5.18
2022-09-03T10:12:14.473Z,5.20
2022-09-03T10:14:47.638Z,4.75
2022-09-03T10:17:20.414Z,4.85
2022-09-03T10:20:22.306Z,4.88
2022-09-03T10:22:56.935Z,4.90
2022-09-03T10:25:30.432Z,5.00
2022-09-03T10:28:01.954Z,5.22
2022-09-03T10:30:41.469Z,4.83
2022-09-03T10:33:17.851Z,5.00
2022-09-03T10:35:53.778Z,4.82
2022-09-03T10:38:30.123Z,4.15
2022-09-03T10:41:10.414Z,4.53
2022-09-03T10:43:59.893Z,4.80
2022-09-03T10:46:29.805Z,4.65
2022-09-03T10:49:21.793Z,4.70
2022-09-03T10:51:58.153Z,4.53
2022-09-03T10:54:40.121Z,5.40
2022-09-03T10:57:20.612Z,5.53
2022-09-03T11:00:01.939Z,5.35
2022-09-03T11:03:08.383Z,5.10
2022-09-03T11:05:40.874Z,4.95
2022-09-03T11:08:15.397Z,5.10
2022-09-03T11:10:47.367Z,5.70
2022-09-03T11:13:20.639Z,5.13
2022-09-03T11:15:54.650Z,5.30
2022-09-03T11:18:27.970Z,5.30
2022-09-03T11:21:00.359Z,5.45
2022-09-03T11:26:03.591Z,5.35
2022-09-03T11:28:45.391Z,4.80
2022-09-03T11:31:31.539Z,5.57
2022-09-03T11:34:06.622Z,5.20
2022-09-03T11:36:40.509Z,5.10
2022-09-03T11:39:25.361Z,5.13
2022-09-03T11:42:04.526Z,4.60
2022-09-03T11:44:44.716Z,4.80
2022-09-03T11:47:24.945Z,4.78
2022-09-03T11:49:54.870Z,5.32
2022-09-03T11:52:30.353Z,4.50
2022-09-03T11:54:59.899Z,4.45
2022-09-03T11:57:30.901Z,3.90
2022-09-03T12:00:11.832Z,3.80
2022-09-03T12:02:46.365Z,3.30
2022-09-03T12:05:28.791Z,3.17
2022-09-03T12:08:11.863Z,3.30
2022-09-03T12:10:50.539Z,3.22
2022-09-03T12:13:30.729Z,3.53
2022-09-03T12:16:24.645Z,3.70
2022-09-03T12:18:54.892Z,3.60
2022-09-03T12:21:22.621Z,3.20
2022-09-03T12:23:55.537Z,2.97
2022-09-03T12:26:28.395Z,2.08
2022-09-03T12:28:59.118Z,2.60
2022-09-03T12:31:29.998Z,2.90
2022-09-03T12:34:00.425Z,3.17
2022-09-03T12:36:38.905Z,2.80
2022-09-03T12:39:12.688Z,3.03
2022-09-03T12:41:57.060Z,2.80
2022-09-03T12:44:29.641Z,3.17
2022-09-03T12:49:58.442Z,3.50
2022-09-03T12:55:00.984Z,2.50
2022-09-03T12:57:34.649Z,3.40
2022-09-03T13:00:07.830Z,4.00
2022-09-03T13:02:42.345Z,2.42
2022-09-03T13:05:17.888Z,2.42
2022-09-03T13:07:49.094Z,2.13
2022-09-03T13:10:27.716Z,2.40
2022-09-03T13:13:01.845Z,2.25
2022-09-03T13:15:30.802Z,2.25
2022-09-03T13:18:25.565Z,2.20
2022-09-03T13:21:08.194Z,2.58
2022-09-03T13:23:56.367Z,2.60
2022-09-03T13:26:36.210Z,2.50
2022-09-03T13:29:29.494Z,2.70
2022-09-03T13:32:06.096Z,2.50
2022-09-03T13:34:38.908Z,2.60
2022-09-03T13:37:19.188Z,2.70
2022-09-03T13:39:53.442Z,3.22
2022-09-03T13:42:27.591Z,2.35
2022-09-03T13:45:06.219Z,2.40
2022-09-03T13:48:00.984Z,2.42
2022-09-03T13:50:31.760Z,2.30
2022-09-03T13:53:05.567Z,2.83
2022-09-03T13:55:39.027Z,2.63
2022-09-03T13:58:11.940Z,2.80
2022-09-03T14:00:44.863Z,2.60
2022-09-03T14:03:25.675Z,2.85
2022-09-03T14:06:06.833Z,3.40
2022-09-03T14:08:54.278Z,2.75
2022-09-03T14:11:32.037Z,3.38
2022-09-03T14:14:13.136Z,2.50
2022-09-03T14:16:49.985Z,2.67
2022-09-03T14:19:24.903Z,2.60
2022-09-03T14:21:57.691Z,2.72
2022-09-03T14:24:30.820Z,3.20
2022-09-03T14:27:02.531Z,3.03
2022-09-03T14:29:32.977Z,2.38
2022-09-03T14:32:24.442Z,2.20
2022-09-03T14:35:29.652Z,2.20
2022-09-03T14:38:25.890Z,2.10
2022-09-03T14:41:04.821Z,2.60
2022-09-03T14:44:07.084Z,2.60
2022-09-03T14:46:49.291Z,2.35
2022-09-03T14:49:37.706Z,2.40
2022-09-03T14:52:22.656Z,2.53
2022-09-03T14:55:14.703Z,2.67
2022-09-03T14:58:09.551Z,2.50
2022-09-03T15:00:48.736Z,2.80
2022-09-03T15:03:48.380Z,2.70
2022-09-03T15:06:30.718Z,2.90
2022-09-03T15:09:21.842Z,3.17
2022-09-03T15:11:53.745Z,3.00
2022-09-03T15:14:27.275Z,3.40
2022-09-03T15:17:01.497Z,2.80
2022-09-03T15:19:44.704Z,2.65
2022-09-03T15:22:28.584Z,2.67
2022-09-03T15:25:06.380Z,2.50
2022-09-03T15:27:53.383Z,2.80
2022-09-03T15:30:21.924Z,2.80
2022-09-03T15:33:01.355Z,3.20
2022-09-03T15:35:41.632Z,2.97
2022-09-03T15:38:13.826Z,2.60
2022-09-03T15:40:51.395Z,3.60
2022-09-03T15:43:22.579Z,3.33
2022-09-03T15:45:58.392Z,2.38
2022-09-03T15:48:35.297Z,2.30
2022-09-03T15:51:16.616Z,2.67
2022-09-03T15:53:54.957Z,2.10
2022-09-03T15:56:28.084Z,2.25
2022-09-03T15:59:08.375Z,2.42
2022-09-03T16:01:45.479Z,2.55
2022-09-03T16:04:26.748Z,2.83
2022-09-03T16:07:01.930Z,2.22
2022-09-03T16:09:57.515Z,2.70
2022-09-03T16:12:41.858Z,2.75
2022-09-03T16:15:15.622Z,3.00
2022-09-03T16:17:55.829Z,3.05
2022-09-03T16:20:31.993Z,3.15
2022-09-03T16:23:06.836Z,2.97
2022-09-03T16:25:49.275Z,3.72
2022-09-03T16:28:25.626Z,3.70
2022-09-03T16:31:05.147Z,3.50
2022-09-03T16:33:41.561Z,3.60
2022-09-03T16:36:26.335Z,3.33
2022-09-03T16:39:02.974Z,3.72
2022-09-03T16:41:37.494Z,3.35
2022-09-03T16:44:11.090Z,3.20
2022-09-03T16:46:47.568Z,3.40
2022-09-03T16:49:37.453Z,3.00
2022-09-03T16:52:14.981Z,2.20
2022-09-03T16:55:05.015Z,1.77
2022-09-03T16:57:48.568Z,2.00
2022-09-03T17:00:18.282Z,1.55
2022-09-03T17:03:25.823Z,1.52
2022-09-03T17:06:10.383Z,1.63
2022-09-03T17:08:48.058Z,1.20
2022-09-03T17:11:36.122Z,1.70
2022-09-03T17:14:21.671Z,1.63
2022-09-03T17:16:59.818Z,1.77
2022-09-03T17:19:36.893Z,1.80
2022-09-03T17:22:18.482Z,1.60
2022-09-03T17:24:54.697Z,1.60
2022-09-03T17:27:42.666Z,1.95
2022-09-03T17:30:20.051Z,1.40
2022-09-03T17:33:06.789Z,1.92
2022-09-03T17:35:42.903Z,1.77
2022-09-03T17:38:26.246Z,1.70
2022-09-03T17:41:05.875Z,1.60
2022-09-03T17:43:46.813Z,1.73
2022-09-03T17:46:31.983Z,1.60
2022-09-03T17:49:02.098Z,1.60
2022-09-03T17:51:43.602Z,2.65
2022-09-03T17:54:18.933Z,2.30
2022-09-03T17:56:52.208Z,2.00
2022-09-03T17:59:34.086Z,1.80
2022-09-03T18:02:08.912Z,1.70
2022-09-03T18:04:47.665Z,1.88
2022-09-03T18:07:24.162Z,1.90
2022-09-03T18:10:03.117Z,1.90
2022-09-03T18:12:59.785Z,1.83
2022-09-03T18:15:37.094Z,1.60
2022-09-03T18:18:11.870Z,1.67
2022-09-03T18:21:22.961Z,1.65
2022-09-03T18:24:19.611Z,1.73
2022-09-03T18:27:13.975Z,1.92
2022-09-03T18:30:05.945Z,1.90
2022-09-03T18:32:51.486Z,1.80
2022-09-03T18:35:37.973Z,1.70
2022-09-03T18:38:24.044Z,1.80
2022-09-03T18:41:15.359Z,1.88
2022-09-03T18:44:14.642Z,1.70
2022-09-03T18:50:23.866Z,1.55
2022-09-03T18:53:15.494Z,1.70
2022-09-03T18:56:13.318Z,2.05
2022-09-03T18:59:12.821Z,2.10
2022-09-03T19:02:00.637Z,2.00
2022-09-03T19:04:59.644Z,2.00
2022-09-03T19:07:52.395Z,2.13
2022-09-03T19:10:53.059Z,1.98
2022-09-03T19:13:50.887Z,2.25
2022-09-03T19:16:44.625Z,2.20
2022-09-03T19:20:09.689Z,2.10
2022-09-03T19:22:56.929Z,2.15
2022-09-03T19:25:45.095Z,2.10
2022-09-03T19:28:35.575Z,2.30
2022-09-03T19:31:44.366Z,2.47
2022-09-03T19:34:43.283Z,2.33
2022-09-03T19:37:35.313Z,2.10
2022-09-03T19:40:38.462Z,2.13
2022-09-03T19:46:31.252Z,2.30
2022-09-03T19:49:27.940Z,2.60
2022-09-03T19:52:22.237Z,2.67
2022-09-03T19:55:11.682Z,2.50
2022-09-03T19:57:59.753Z,2.50
2022-09-03T20:00:46.907Z,2.60
2022-09-03T20:03:33.947Z,3.00
2022-09-03T20:06:22.025Z,2.80
2022-09-03T20:09:09.935Z,2.50
2022-09-03T20:11:40.774Z,2.90
2022-09-03T20:14:14.357Z,3.00
2022-09-03T20:16:52.277Z,2.95
2022-09-03T20:19:30.970Z,3.60
2022-09-03T20:22:05.556Z,3.20
2022-09-03T20:24:45.790Z,3.13
2022-09-03T20:27:24.936Z,3.25
2022-09-03T20:29:59.767Z,3.35
2022-09-03T20:32:50.644Z,2.97
2022-09-03T20:35:32.762Z,3.00
2022-09-03T20:38:16.637Z,2.85
2022-09-03T20:40:51.828Z,3.10
2022-09-03T20:43:58.187Z,2.85
2022-09-03T20:46:45.430Z,3.00
2022-09-03T20:49:25.578Z,2.97
2022-09-03T20:52:02.608Z,3.20
2022-09-03T20:54:33.716Z,2.90
2022-09-03T20:57:21.389Z,3.03
2022-09-03T21:00:02.759Z,4.45
2022-09-03T21:02:42.046Z,4.38
2022-09-03T21:05:18.349Z,4.55
2022-09-03T21:08:01.334Z,4.20
2022-09-03T21:10:35.363Z,4.50
2022-09-03T21:13:12.185Z,3.60
2022-09-03T21:15:54.482Z,3.33
2022-09-03T21:18:34.857Z,3.05
2022-09-03T21:21:12.313Z,3.00
2022-09-03T21:23:44.985Z,3.30
2022-09-03T21:26:19.352Z,2.72
2022-09-03T21:28:55.078Z,2.90
2022-09-03T21:31:27.327Z,3.10
2022-09-03T21:34:09.291Z,2.97
2022-09-03T21:36:37.369Z,3.40
2022-09-03T21:39:14.230Z,3.60
2022-09-03T21:41:48.140Z,3.30
2022-09-03T21:44:20.330Z,3.30
2022-09-03T21:46:53.973Z,3.90
2022-09-03T21:49:27.049Z,3.35
2022-09-03T21:52:02.052Z,2.70
2022-09-03T21:54:33.664Z,2.70
2022-09-03T21:57:14.104Z,3.07
2022-09-03T22:00:02.164Z,3.42
2022-09-03T22:02:32.006Z,3.13
2022-09-03T22:05:01.219Z,3.28
2022-09-03T22:07:44.884Z,3.67
2022-09-03T22:10:21.889Z,3.40
2022-09-03T22:12:57.705Z,3.67
2022-09-03T22:15:25.579Z,4.07
2022-09-03T22:17:58.798Z,4.25
2022-09-03T22:20:27.880Z,4.13
2022-09-03T22:22:57.691Z,3.80
2022-09-03T22:25:34.139Z,4.18
2022-09-03T22:28:11.864Z,4.20
2022-09-03T22:30:47.911Z,3.83
2022-09-03T22:33:21.888Z,4.28
2022-09-03T22:36:02.388Z,4.30
2022-09-03T22:38:56.522Z,4.18
2022-09-03T22:41:48.465Z,4.60
2022-09-03T22:44:33.147Z,4.63
2022-09-03T22:47:13.256Z,3.97
2022-09-03T22:49:51.156Z,4.18
2022-09-03T22:52:31.423Z,4.07
2022-09-03T22:55:13.939Z,4.00
2022-09-03T22:57:55.376Z,3.83
2022-09-03T23:00:23.940Z,4.22
2022-09-03T23:03:00.593Z,4.35
2022-09-03T23:05:36.804Z,3.80
2022-09-03T23:08:10.600Z,4.00
2022-09-03T23:10:54.015Z,3.67
2022-09-03T23:13:30.234Z,4.40
2022-09-03T23:16:06.533Z,4.45
2022-09-03T23:18:36.090Z,4.07
2022-09-03T23:21:09.927Z,4.03
2022-09-03T23:23:42.492Z,4.20
2022-09-03T23:28:50.312Z,4.72
2022-09-03T23:31:22.086Z,4.03
2022-09-03T23:33:52.255Z,4.40
2022-09-03T23:36:57.821Z,4.15
2022-09-03T23:39:36.779Z,4.40
2022-09-03T23:42:17.413Z,4.18
2022-09-03T23:45:15.428Z,4.47
2022-09-03T23:47:47.918Z,5.25
2022-09-03T23:50:28.947Z,5.07
2022-09-03T23:53:18.435Z,5.72
2022-09-03T23:56:00.410Z,5.15
2022-09-03T23:58:42.846Z,5.25
